Time;durP1;ratioP1;P1;durP2;ratioP2;P2;SDS_P1;SDS_P2;PMS_P1;PMS_P2;Temp;Humidity;BMP_temperature;BMP_pressure;BME280_temperature;BME280_humidity;BME280_pressure;Samples;Min_cycle;Max_cycle;Signal;HPM_P1;HPM_P2
2023/05/13 00:00:22;;;;;;;;;;;;;;;;;;5050506;28;4622;-62
2023/05/13 00:02:47;;;;;;;;;;;;;;;;;;5059231;28;4462;-62
2023/05/13 00:05:13;;;;;;;;;;;;;;;;;;5058833;28;4533;-62
2023/05/13 00:07:40;;;;;;;;;;;;;;;;;;5060175;28;4966;-63
2023/05/13 00:10:05;;;;;;;;;;;;;;;;;;5057783;28;1166;-62
2023/05/13 00:12:31;;;;;;;;;;;;;;;;;;5051810;28;4505;-60
2023/05/13 00:14:56;;;;;;;;;;;;;;;;;;5055449;28;4425;-59
2023/05/13 00:17:21;;;;;;;;;;;;;;;;;;5047702;28;4668;-61
2023/05/13 00:19:47;;;;;;;;;;;;;;;;;;5055689;28;4505;-57
2023/05/13 00:22:12;;;;;;;;;;;;;;;;;;5055388;28;2830;-57
2023/05/13 00:24:37;;;;;;;;;;;;;;;;;;5061588;28;4589;-57
2023/05/13 00:27:02;;;;;;;;;;;;;;;;;;5056423;28;5567;-58
2023/05/13 00:29:28;;;;;;;;;;;;;;;;;;5057407;28;4521;-59
2023/05/13 00:31:53;;;;;;;;;;;;;;;;;;5044508;28;4585;-58
2023/05/13 00:34:18;;;;;;;;;;;;;;;;;;5051667;28;3388;-58
2023/05/13 00:36:44;;;;;;;;;;;;;;;;;;5055730;28;4635;-58
2023/05/13 00:39:10;;;;;;;;;;;;;;;;;;5056906;28;4647;-57
2023/05/13 00:41:35;;;;;;;;;;;;;;;;;;5051149;28;4845;-58
2023/05/13 00:44:01;;;;;;;;;;;;;;;;;;5057245;28;4726;-58
2023/05/13 00:46:29;;;;;;;;;;;;;;;;;;5047309;28;4485;-58
2023/05/13 00:48:54;;;;;;;;;;;;;;;;;;5063957;28;3184;-58
2023/05/13 00:51:19;;;;;;;;;;;;;;;;;;5056601;28;4628;-58
2023/05/13 00:53:45;;;;;;;;;;;;;;;;;;5048890;28;4641;-58
2023/05/13 00:56:10;;;;;;;;;;;;;;;;;;5051922;28;4663;-58
2023/05/13 00:58:35;;;;;;;;;;;;;;;;;;5047155;28;4647;-58
2023/05/13 01:01:00;;;;;;;;;;;;;;;;;;5058080;28;1120;-58
2023/05/13 01:03:28;;;;;;;;;;;;;;;;;;5054836;28;4649;-58
2023/05/13 01:05:58;;;;;;;;;;;;;;;;;;5047246;28;4738;-58
2023/05/13 01:08:31;;;;;;;;;;;;;;;;;;5050913;28;5217;-58
2023/05/13 01:10:56;;;;;;;;;;;;;;;;;;5052668;28;4866;-58
2023/05/13 01:13:23;;;;;;;;;;;;;;;;;;5060234;28;4520;-59
2023/05/13 01:15:49;;;;;;;;;;;;;;;;;;5055791;28;3186;-58
2023/05/13 01:18:16;;;;;;;;;;;;;;;;;;5054070;28;4607;-58
2023/05/13 01:20:42;;;;;;;;;;;;;;;;;;5056343;28;4636;-56
2023/05/13 01:23:08;;;;;;;;;;;;;;;;;;5058965;28;4542;-58
2023/05/13 01:25:34;;;;;;;;;;;;;;;;;;5077200;28;5109;-59
2023/05/13 01:27:59;;;;;;;;;;;;;;;;;;5056654;28;3894;-58
2023/05/13 01:30:25;;;;;;;;;;;;;;;;;;5056720;28;4653;-58
2023/05/13 01:32:50;;;;;;;;;;;;;;;;;;5047295;28;4501;-58
2023/05/13 01:35:16;;;;;;;;;;;;;;;;;;5052089;28;4608;-58
2023/05/13 01:37:41;;;;;;;;;;;;;;;;;;5052175;28;4533;-58
2023/05/13 01:40:06;;;;;;;;;;;;;;;;;;5052693;28;4852;-58
2023/05/13 01:42:33;;;;;;;;;;;;;;;;;;5048020;28;4528;-58
2023/05/13 01:44:58;;;;;;;;;;;;;;;;;;5054710;28;4903;-58
2023/05/13 01:47:23;;;;;;;;;;;;;;;;;;5048247;28;4488;-58
2023/05/13 01:49:48;;;;;;;;;;;;;;;;;;5058943;28;4457;-58
2023/05/13 01:52:14;;;;;;;;;;;;;;;;;;5049718;28;3473;-58
2023/05/13 01:54:39;;;;;;;;;;;;;;;;;;5059289;28;4995;-58
2023/05/13 01:57:05;;;;;;;;;;;;;;;;;;5058275;28;4501;-58
2023/05/13 01:59:30;;;;;;;;;;;;;;;;;;5053778;28;5403;-58
2023/05/13 02:01:55;;;;;;;;;;;;;;;;;;5053112;28;6290;-58
2023/05/13 02:04:20;;;;;;;;;;;;;;;;;;5050292;28;4754;-56
2023/05/13 02:06:46;;;;;;;;;;;;;;;;;;5056217;28;3077;-58
2023/05/13 02:09:11;;;;;;;;;;;;;;;;;;5054465;28;4625;-58
2023/05/13 02:11:37;;;;;;;;;;;;;;;;;;5044504;28;4440;-58
2023/05/13 02:14:02;;;;;;;;;;;;;;;;;;5062359;28;4480;-58
2023/05/13 02:16:27;;;;;;;;;;;;;;;;;;5048267;28;5187;-59
2023/05/13 02:18:53;;;;;;;;;;;;;;;;;;5046978;28;3473;-58
2023/05/13 02:21:18;;;;;;;;;;;;;;;;;;5052188;28;4551;-58
2023/05/13 02:23:43;;;;;;;;;;;;;;;;;;5054240;28;5365;-58
2023/05/13 02:26:08;;;;;;;;;;;;;;;;;;5050071;28;4587;-58
2023/05/13 02:28:33;;;;;;;;;;;;;;;;;;5053705;28;4501;-58
2023/05/13 02:30:59;;;;;;;;;;;;;;;;;;5052318;28;3348;-58
2023/05/13 02:33:25;;;;;;;;;;;;;;;;;;5044571;28;4504;-59
2023/05/13 02:35:50;;;;;;;;;;;;;;;;;;5051814;28;4600;-57
2023/05/13 02:38:16;;;;;;;;;;;;;;;;;;5050499;28;4861;-58
2023/05/13 02:40:41;;;;;;;;;;;;;;;;;;5057632;28;4808;-58
2023/05/13 02:43:06;;;;;;;;;;;;;;;;;;5053610;28;3348;-58
2023/05/13 02:45:32;;;;;;;;;;;;;;;;;;5047301;28;4448;-58
2023/05/13 02:47:57;;;;;;;;;;;;;;;;;;5050596;28;4627;-58
2023/05/13 02:50:22;;;;;;;;;;;;;;;;;;5049634;28;4533;-58
2023/05/13 02:52:47;;;;;;;;;;;;;;;;;;5055342;28;4692;-58
2023/05/13 02:55:13;;;;;;;;;;;;;;;;;;5046702;28;3229;-58
2023/05/13 02:57:38;;;;;;;;;;;;;;;;;;5050543;28;5111;-58
2023/05/13 03:00:04;;;;;;;;;;;;;;;;;;5053277;28;4850;-59
2023/05/13 03:02:29;;;;;;;;;;;;;;;;;;5048818;28;4506;-58
2023/05/13 03:04:55;;;;;;;;;;;;;;;;;;5053545;28;5418;-58
2023/05/13 03:07:20;;;;;;;;;;;;;;;;;;5055906;28;4669;-55
2023/05/13 03:09:46;;;;;;;;;;;;;;;;;;5053255;28;3144;-58
2023/05/13 03:12:11;;;;;;;;;;;;;;;;;;5057575;28;4443;-58
2023/05/13 03:14:37;;;;;;;;;;;;;;;;;;5049601;28;5210;-58
2023/05/13 03:17:02;;;;;;;;;;;;;;;;;;5049667;28;4468;-58
2023/05/13 03:19:27;;;;;;;;;;;;;;;;;;5049368;28;4509;-58
2023/05/13 03:21:53;;;;;;;;;;;;;;;;;;5054326;28;1136;-58
2023/05/13 03:24:18;;;;;;;;;;;;;;;;;;5050359;28;4548;-59
2023/05/13 03:26:43;;;;;;;;;;;;;;;;;;5058987;28;4631;-56
2023/05/13 03:29:08;;;;;;;;;;;;;;;;;;5047619;28;4527;-59
2023/05/13 03:31:34;;;;;;;;;;;;;;;;;;5048467;28;4694;-59
2023/05/13 03:33:59;;;;;;;;;;;;;;;;;;5053157;28;3352;-59
2023/05/13 03:36:24;;;;;;;;;;;;;;;;;;5048653;28;5114;-59
2023/05/13 03:38:49;;;;;;;;;;;;;;;;;;5053614;28;4725;-59
2023/05/13 03:41:16;;;;;;;;;;;;;;;;;;5052531;28;5062;-59
2023/05/13 03:43:41;;;;;;;;;;;;;;;;;;5049955;28;4530;-58
2023/05/13 03:46:07;;;;;;;;;;;;;;;;;;5047607;28;1564;-56
2023/05/13 03:48:32;;;;;;;;;;;;;;;;;;5050448;28;4491;-59
2023/05/13 03:50:57;;;;;;;;;;;;;;;;;;5060202;28;5087;-59
2023/05/13 03:53:22;;;;;;;;;;;;;;;;;;5061099;28;4547;-59
2023/05/13 03:55:48;;;;;;;;;;;;;;;;;;5051910;28;4496;-59
2023/05/13 03:58:13;;;;;;;;;;;;;;;;;;5058888;28;1248;-59
2023/05/13 04:00:39;;;;;;;;;;;;;;;;;;5054366;28;5004;-59
2023/05/13 04:03:04;;;;;;;;;;;;;;;;;;5052745;28;4487;-58
2023/05/13 04:05:30;;;;;;;;;;;;;;;;;;5056467;28;4967;-59
2023/05/13 04:07:55;;;;;;;;;;;;;;;;;;5057566;28;5096;-59
2023/05/13 04:10:20;;;;;;;;;;;;;;;;;;5060352;28;4698;-56
2023/05/13 04:12:45;;;;;;;;;;;;;;;;;;5063870;28;3306;-59
2023/05/13 04:15:11;;;;;;;;;;;;;;;;;;5060470;28;4496;-59
2023/05/13 04:17:36;;;;;;;;;;;;;;;;;;5050482;28;4547;-59
2023/05/13 04:20:01;;;;;;;;;;;;;;;;;;5049316;28;4570;-59
2023/05/13 04:22:26;;;;;;;;;;;;;;;;;;5054920;28;4555;-59
2023/05/13 04:24:55;;;;;;;;;;;;;;;;;;5050204;28;3380;-58
2023/05/13 04:27:20;;;;;;;;;;;;;;;;;;5053356;28;5115;-57
2023/05/13 04:29:46;;;;;;;;;;;;;;;;;;5055940;28;4522;-58
2023/05/13 04:32:14;;;;;;;;;;;;;;;;;;5056939;28;4980;-58
2023/05/13 04:34:40;;;;;;;;;;;;;;;;;;5051726;28;4484;-58
2023/05/13 04:37:05;;;;;;;;;;;;;;;;;;5048578;28;3257;-58
2023/05/13 04:39:30;;;;;;;;;;;;;;;;;;5053588;28;5351;-59
2023/05/13 04:41:55;;;;;;;;;;;;;;;;;;5058539;28;4988;-59
2023/05/13 04:44:21;;;;;;;;;;;;;;;;;;5055432;28;5133;-58
2023/05/13 04:46:46;;;;;;;;;;;;;;;;;;5048555;28;4515;-59
2023/05/13 04:49:11;;;;;;;;;;;;;;;;;;5055023;28;3341;-58
2023/05/13 04:51:37;;;;;;;;;;;;;;;;;;5051775;28;4653;-60
2023/05/13 04:54:02;;;;;;;;;;;;;;;;;;5049914;28;4495;-59
2023/05/13 04:56:27;;;;;;;;;;;;;;;;;;5053824;28;4695;-59
2023/05/13 04:58:52;;;;;;;;;;;;;;;;;;5049400;28;5052;-58
2023/05/13 05:01:18;;;;;;;;;;;;;;;;;;5049523;28;3243;-58
2023/05/13 05:03:43;;;;;;;;;;;;;;;;;;5058153;28;4864;-58
2023/05/13 05:06:08;;;;;;;;;;;;;;;;;;5050447;28;4543;-58
2023/05/13 05:08:33;;;;;;;;;;;;;;;;;;5056904;28;4671;-58
2023/05/13 05:10:59;;;;;;;;;;;;;;;;;;5056712;28;5139;-58
2023/05/13 05:13:24;;;;;;;;;;;;;;;;;;5052995;28;4959;-58
2023/05/13 05:15:49;;;;;;;;;;;;;;;;;;5050339;28;3260;-58
2023/05/13 05:18:14;;;;;;;;;;;;;;;;;;5046906;28;4772;-58
2023/05/13 05:20:40;;;;;;;;;;;;;;;;;;5053016;28;4534;-58
2023/05/13 05:23:06;;;;;;;;;;;;;;;;;;5050241;28;4488;-58
2023/05/13 05:25:31;;;;;;;;;;;;;;;;;;5058908;28;4945;-58
2023/05/13 05:27:56;;;;;;;;;;;;;;;;;;5050799;28;3293;-59
2023/05/13 05:30:22;;;;;;;;;;;;;;;;;;5047833;28;4680;-58
2023/05/13 05:32:47;;;;;;;;;;;;;;;;;;5054848;28;4505;-58
2023/05/13 05:35:14;;;;;;;;;;;;;;;;;;5047912;28;4755;-58
2023/05/13 05:37:40;;;;;;;;;;;;;;;;;;5049938;28;4578;-58
2023/05/13 05:40:05;;;;;;;;;;;;;;;;;;5053341;28;4940;-58
2023/05/13 05:42:30;;;;;;;;;;;;;;;;;;5057089;28;4537;-58
2023/05/13 05:44:56;;;;;;;;;;;;;;;;;;5055435;28;4524;-58
2023/05/13 05:47:21;;;;;;;;;;;;;;;;;;5053523;28;5078;-58
2023/05/13 05:49:46;;;;;;;;;;;;;;;;;;5056198;28;4498;-57
2023/05/13 05:52:12;;;;;;;;;;;;;;;;;;5053523;28;3251;-58
2023/05/13 05:54:37;;;;;;;;;;;;;;;;;;5045476;28;5062;-58
2023/05/13 05:57:02;;;;;;;;;;;;;;;;;;5047627;28;4509;-58
2023/05/13 05:59:28;;;;;;;;;;;;;;;;;;5045504;28;4996;-56
2023/05/13 06:01:53;;;;;;;;;;;;;;;;;;5054533;28;4886;-57
2023/05/13 06:04:18;;;;;;;;;;;;;;;;;;5051832;28;3537;-57
2023/05/13 06:06:43;;;;;;;;;;;;;;;;;;5056146;28;5084;-57
2023/05/13 06:09:09;;;;;;;;;;;;;;;;;;5057613;28;5033;-57
2023/05/13 06:11:34;;;;;;;;;;;;;;;;;;5053708;28;4657;-57
2023/05/13 06:13:59;;;;;;;;;;;;;;;;;;5049296;28;5168;-57
2023/05/13 06:16:25;;;;;;;;;;;;;;;;;;5049750;28;5153;-58
2023/05/13 06:18:50;;;;;;;;;;;;;;;;;;5050429;28;3381;-57
2023/05/13 06:21:15;;;;;;;;;;;;;;;;;;5047822;28;4627;-57
2023/05/13 06:23:41;;;;;;;;;;;;;;;;;;5058326;28;4644;-57
2023/05/13 06:26:06;;;;;;;;;;;;;;;;;;5047849;28;4682;-59
2023/05/13 06:28:31;;;;;;;;;;;;;;;;;;5052400;28;4693;-57
2023/05/13 06:30:56;;;;;;;;;;;;;;;;;;5051232;28;3309;-58
2023/05/13 06:33:22;;;;;;;;;;;;;;;;;;5055661;28;5114;-58
2023/05/13 06:35:48;;;;;;;;;;;;;;;;;;5050261;28;4491;-58
2023/05/13 06:38:16;;;;;;;;;;;;;;;;;;5047242;28;5648;-58
2023/05/13 06:40:41;;;;;;;;;;;;;;;;;;5059175;28;4875;-59
2023/05/13 06:43:07;;;;;;;;;;;;;;;;;;5064352;28;1914;-58
2023/05/13 06:45:32;;;;;;;;;;;;;;;;;;5048042;28;4576;-59
2023/05/13 06:47:57;;;;;;;;;;;;;;;;;;5048951;28;5008;-58
2023/05/13 06:50:23;;;;;;;;;;;;;;;;;;5046519;28;4602;-59
2023/05/13 06:52:48;;;;;;;;;;;;;;;;;;5056739;28;4676;-58
2023/05/13 06:55:15;;;;;;;;;;;;;;;;;;5049197;28;3330;-58
2023/05/13 06:57:44;;;;;;;;;;;;;;;;;;5050200;28;4418;-58
2023/05/13 07:00:09;;;;;;;;;;;;;;;;;;5047557;28;5187;-58
2023/05/13 07:02:35;;;;;;;;;;;;;;;;;;5050143;28;4481;-58
2023/05/13 07:05:00;;;;;;;;;;;;;;;;;;5047344;28;4497;-58
2023/05/13 07:07:25;;;;;;;;;;;;;;;;;;5053569;28;4599;-58
2023/05/13 07:09:50;;;;;;;;;;;;;;;;;;5052268;28;3248;-58
2023/05/13 07:12:16;;;;;;;;;;;;;;;;;;5048349;28;4515;-58
2023/05/13 07:14:44;;;;;;;;;;;;;;;;;;5052785;28;4989;-58
2023/05/13 07:17:09;;;;;;;;;;;;;;;;;;5051019;28;4601;-58
2023/05/13 07:19:34;;;;;;;;;;;;;;;;;;5046569;28;4805;-58
2023/05/13 07:21:59;;;;;;;;;;;;;;;;;;5047229;28;3312;-59
2023/05/13 07:24:25;;;;;;;;;;;;;;;;;;5050879;28;4930;-58
2023/05/13 07:26:50;;;;;;;;;;;;;;;;;;5055825;28;4506;-58
2023/05/13 07:29:15;;;;;;;;;;;;;;;;;;5051143;28;4515;-58
2023/05/13 07:31:40;;;;;;;;;;;;;;;;;;5056989;28;4509;-58
2023/05/13 07:34:06;;;;;;;;;;;;;;;;;;5054207;28;3296;-58
2023/05/13 07:36:31;;;;;;;;;;;;;;;;;;5052498;28;4656;-58
2023/05/13 07:38:56;;;;;;;;;;;;;;;;;;5052386;28;5608;-58
2023/05/13 07:41:22;;;;;;;;;;;;;;;;;;5052903;28;4805;-59
2023/05/13 07:43:47;;;;;;;;;;;;;;;;;;5051697;28;5193;-58
2023/05/13 07:46:12;;;;;;;;;;;;;;;;;;5051331;28;3359;-59
2023/05/13 07:48:38;;;;;;;;;;;;;;;;;;5059043;28;4788;-58
2023/05/13 07:51:03;;;;;;;;;;;;;;;;;;5056892;28;4507;-58
2023/05/13 07:53:29;;;;;;;;;;;;;;;;;;5053923;28;4941;-58
2023/05/13 07:55:54;;;;;;;;;;;;;;;;;;5052080;28;4736;-58
2023/05/13 07:58:19;;;;;;;;;;;;;;;;;;5062439;28;3184;-58
2023/05/13 08:00:45;;;;;;;;;;;;;;;;;;5055161;28;4414;-58
2023/05/13 08:03:11;;;;;;;;;;;;;;;;;;5059537;28;4821;-58
2023/05/13 08:05:36;;;;;;;;;;;;;;;;;;5056322;28;4668;-58
2023/05/13 08:08:02;;;;;;;;;;;;;;;;;;5056087;28;5001;-59
2023/05/13 08:10:28;;;;;;;;;;;;;;;;;;5059362;28;4661;-59
2023/05/13 08:12:56;;;;;;;;;;;;;;;;;;5055225;28;3312;-57
2023/05/13 08:15:21;;;;;;;;;;;;;;;;;;5059196;28;4835;-59
2023/05/13 08:17:47;;;;;;;;;;;;;;;;;;5053573;28;4467;-57
2023/05/13 08:20:14;;;;;;;;;;;;;;;;;;5049396;28;4691;-56
2023/05/13 08:22:39;;;;;;;;;;;;;;;;;;5053238;28;4693;-58
2023/05/13 08:25:04;;;;;;;;;;;;;;;;;;5056190;28;3158;-57
2023/05/13 08:27:30;;;;;;;;;;;;;;;;;;5052274;28;4723;-58
2023/05/13 08:29:55;;;;;;;;;;;;;;;;;;5051231;28;5103;-57
2023/05/13 08:32:20;;;;;;;;;;;;;;;;;;5054989;28;4515;-57
2023/05/13 08:34:45;;;;;;;;;;;;;;;;;;5048195;28;4464;-57
2023/05/13 08:37:11;;;;;;;;;;;;;;;;;;5052919;28;3189;-58
2023/05/13 08:39:37;;;;;;;;;;;;;;;;;;5046080;28;4964;-58
2023/05/13 08:42:02;;;;;;;;;;;;;;;;;;5047858;28;5207;-57
2023/05/13 08:44:28;;;;;;;;;;;;;;;;;;5053251;28;4573;-59
2023/05/13 08:46:59;;;;;;;;;;;;;;;;;;5046126;28;4511;-58
2023/05/13 08:49:24;;;;;;;;;;;;;;;;;;5051906;28;5144;-58
2023/05/13 08:51:49;;;;;;;;;;;;;;;;;;5063735;28;1092;-58
2023/05/13 08:54:15;;;;;;;;;;;;;;;;;;5053329;28;4459;-58
2023/05/13 08:56:41;;;;;;;;;;;;;;;;;;5057680;28;4513;-58
2023/05/13 08:59:06;;;;;;;;;;;;;;;;;;5050685;28;5583;-58
2023/05/13 09:01:31;;;;;;;;;;;;;;;;;;5049275;28;2979;-58
2023/05/13 09:03:58;;;;;;;;;;;;;;;;;;5044633;28;6724;-58
2023/05/13 09:06:23;;;;;;;;;;;;;;;;;;5043452;28;5130;-57
2023/05/13 09:08:49;;;;;;;;;;;;;;;;;;5055048;28;4817;-58
2023/05/13 09:11:14;;;;;;;;;;;;;;;;;;5050837;28;5253;-57
2023/05/13 09:13:41;;;;;;;;;;;;;;;;;;5048945;28;1199;-60
2023/05/13 09:16:06;;;;;;;;;;;;;;;;;;5045325;28;4632;-58
2023/05/13 09:18:32;;;;;;;;;;;;;;;;;;5059662;28;5157;-57
2023/05/13 09:20:57;;;;;;;;;;;;;;;;;;5057670;28;5239;-57
2023/05/13 09:23:22;;;;;;;;;;;;;;;;;;5053414;28;5052;-56
2023/05/13 09:25:48;;;;;;;;;;;;;;;;;;5048990;28;1498;-57
2023/05/13 09:28:13;;;;;;;;;;;;;;;;;;5046372;28;4436;-57
2023/05/13 09:30:39;;;;;;;;;;;;;;;;;;5045362;28;4706;-57
2023/05/13 09:33:04;;;;;;;;;;;;;;;;;;5046749;28;4680;-56
2023/05/13 09:35:30;;;;;;;;;;;;;;;;;;5047996;28;4633;-57
2023/05/13 09:37:55;;;;;;;;;;;;;;;;;;5048770;28;5743;-57
2023/05/13 09:40:20;;;;;;;;;;;;;;;;;;5043226;28;4536;-57
2023/05/13 09:42:45;;;;;;;;;;;;;;;;;;5047184;28;4624;-57
2023/05/13 09:45:11;;;;;;;;;;;;;;;;;;5048846;28;4640;-57
2023/05/13 09:47:37;;;;;;;;;;;;;;;;;;5045992;28;4628;-57
2023/05/13 09:50:03;;;;;;;;;;;;;;;;;;5045835;28;3992;-59
2023/05/13 09:52:31;;;;;;;;;;;;;;;;;;5046089;28;4408;-57
2023/05/13 09:54:57;;;;;;;;;;;;;;;;;;5048265;28;5130;-59
2023/05/13 09:57:22;;;;;;;;;;;;;;;;;;5047384;28;4687;-59
2023/05/13 09:59:47;;;;;;;;;;;;;;;;;;5048463;28;4526;-58
2023/05/13 10:02:13;;;;;;;;;;;;;;;;;;5050277;28;4514;-57
2023/05/13 10:04:38;;;;;;;;;;;;;;;;;;5040873;28;3184;-62
2023/05/13 10:07:03;;;;;;;;;;;;;;;;;;5045406;28;4825;-59
2023/05/13 10:09:29;;;;;;;;;;;;;;;;;;5064655;28;4491;-59
2023/05/13 10:11:54;;;;;;;;;;;;;;;;;;5046207;28;5097;-58
2023/05/13 10:14:20;;;;;;;;;;;;;;;;;;5048297;28;4661;-60
2023/05/13 10:16:46;;;;;;;;;;;;;;;;;;5044008;28;3251;-58
2023/05/13 10:19:12;;;;;;;;;;;;;;;;;;5050856;28;4644;-59
2023/05/13 10:21:37;;;;;;;;;;;;;;;;;;5048024;28;4750;-58
2023/05/13 10:24:02;;;;;;;;;;;;;;;;;;5044135;28;4939;-57
2023/05/13 10:26:27;;;;;;;;;;;;;;;;;;5040511;28;4758;-57
2023/05/13 10:28:53;;;;;;;;;;;;;;;;;;5046605;28;3270;-60
2023/05/13 10:31:18;;;;;;;;;;;;;;;;;;5049490;28;5039;-59
2023/05/13 10:33:44;;;;;;;;;;;;;;;;;;5046315;28;4533;-59
2023/05/13 10:36:10;;;;;;;;;;;;;;;;;;5050315;28;4529;-60
2023/05/13 10:38:38;;;;;;;;;;;;;;;;;;5046729;28;4739;-60
2023/05/13 10:41:22;;;;;;;;;;;;;;;;;;5052319;28;4574;-57
2023/05/13 10:43:47;;;;;;;;;;;;;;;;;;5076399;28;1938;-62
2023/05/13 10:46:12;;;;;;;;;;;;;;;;;;5049841;28;4471;-62
2023/05/13 10:48:42;;;;;;;;;;;;;;;;;;5046615;28;4946;-62
2023/05/13 10:51:07;;;;;;;;;;;;;;;;;;5046845;28;5205;-62
2023/05/13 10:53:43;;;;;;;;;;;;;;;;;;5046995;28;4450;-62
2023/05/13 10:56:08;;;;;;;;;;;;;;;;;;5047225;28;4494;-62
2023/05/13 10:58:36;;;;;;;;;;;;;;;;;;5047767;28;1293;-60
2023/05/13 11:01:17;;;;;;;;;;;;;;;;;;5041861;28;4440;-62
2023/05/13 11:03:50;;;;;;;;;;;;;;;;;;5047669;28;4634;-62
2023/05/13 11:06:16;;;;;;;;;;;;;;;;;;5038613;28;4754;-61
2023/05/13 11:08:42;;;;;;;;;;;;;;;;;;5047883;28;5020;-62
2023/05/13 11:11:19;;;;;;;;;;;;;;;;;;5047669;28;4915;-62
2023/05/13 11:13:44;;;;;;;;;;;;;;;;;;5079852;28;1221;-62
2023/05/13 11:16:10;;;;;;;;;;;;;;;;;;5044779;28;4654;-62
2023/05/13 11:18:35;;;;;;;;;;;;;;;;;;5058444;28;4568;-61
2023/05/13 11:21:01;;;;;;;;;;;;;;;;;;5046382;28;4692;-62
2023/05/13 11:23:26;;;;;;;;;;;;;;;;;;5047798;28;4507;-62
2023/05/13 11:26:11;;;;;;;;;;;;;;;;;;5047861;28;1140;-62
2023/05/13 11:28:51;;;;;;;;;;;;;;;;;;5047515;28;4873;-62
2023/05/13 11:31:17;;;;;;;;;;;;;;;;;;5040672;28;5007;-62
2023/05/13 11:34:05;;;;;;;;;;;;;;;;;;5047607;28;5034;-62
2023/05/13 11:36:30;;;;;;;;;;;;;;;;;;5040382;28;4494;-62
2023/05/13 11:39:03;;;;;;;;;;;;;;;;;;5060878;28;4906;-62
2023/05/13 11:41:32;;;;;;;;;;;;;;;;;;5045405;28;4430;-62
2023/05/13 11:43:58;;;;;;;;;;;;;;;;;;5046405;28;1969;-62
2023/05/13 11:46:23;;;;;;;;;;;;;;;;;;5045081;28;4574;-61
2023/05/13 11:48:48;;;;;;;;;;;;;;;;;;5045272;28;5029;-62
2023/05/13 11:51:16;;;;;;;;;;;;;;;;;;5047226;28;4776;-62
2023/05/13 11:53:42;;;;;;;;;;;;;;;;;;5047460;28;5011;-62
2023/05/13 11:56:09;;;;;;;;;;;;;;;;;;5047252;28;4534;-62
2023/05/13 11:58:34;;;;;;;;;;;;;;;;;;5046468;28;1111;-61
2023/05/13 12:00:59;;;;;;;;;;;;;;;;;;5046918;28;4972;-62
2023/05/13 12:03:26;;;;;;;;;;;;;;;;;;5047257;28;4468;-62
2023/05/13 12:05:58;;;;;;;;;;;;;;;;;;5045403;28;4467;-61
2023/05/13 12:08:24;;;;;;;;;;;;;;;;;;5046860;28;4633;-62
2023/05/13 12:10:49;;;;;;;;;;;;;;;;;;5048926;28;5026;-62
2023/05/13 12:13:14;;;;;;;;;;;;;;;;;;5050831;28;5200;-62
2023/05/13 12:15:40;;;;;;;;;;;;;;;;;;5052642;28;4571;-61
2023/05/13 12:18:06;;;;;;;;;;;;;;;;;;5047892;28;5493;-61
2023/05/13 12:20:31;;;;;;;;;;;;;;;;;;5049434;28;4571;-62
2023/05/13 12:22:57;;;;;;;;;;;;;;;;;;5049365;28;1909;-62
2023/05/13 12:25:38;;;;;;;;;;;;;;;;;;5048369;28;5093;-62
2023/05/13 12:28:16;;;;;;;;;;;;;;;;;;5050470;28;4467;-62
2023/05/13 12:30:42;;;;;;;;;;;;;;;;;;5050215;28;5036;-62
2023/05/13 12:33:17;;;;;;;;;;;;;;;;;;5050630;28;4471;-61
2023/05/13 12:35:42;;;;;;;;;;;;;;;;;;5050261;28;4576;-62
2023/05/13 12:38:12;;;;;;;;;;;;;;;;;;5050293;28;4896;-62
2023/05/13 12:40:38;;;;;;;;;;;;;;;;;;5050885;28;1112;-62
2023/05/13 12:43:03;;;;;;;;;;;;;;;;;;5048423;28;4665;-62
2023/05/13 12:45:29;;;;;;;;;;;;;;;;;;5048489;28;5132;-62
2023/05/13 12:47:55;;;;;;;;;;;;;;;;;;5049335;28;4472;-61
2023/05/13 12:50:20;;;;;;;;;;;;;;;;;;5049587;28;4621;-61
2023/05/13 12:52:46;;;;;;;;;;;;;;;;;;5050481;28;1218;-62
2023/05/13 12:55:12;;;;;;;;;;;;;;;;;;5050077;28;5092;-62
2023/05/13 12:57:38;;;;;;;;;;;;;;;;;;5050055;28;4436;-61
2023/05/13 13:00:04;;;;;;;;;;;;;;;;;;5049483;28;4666;-62
2023/05/13 13:02:29;;;;;;;;;;;;;;;;;;5049552;28;4765;-62
2023/05/13 13:04:55;;;;;;;;;;;;;;;;;;5046268;28;1902;-62
2023/05/13 13:07:20;;;;;;;;;;;;;;;;;;5050056;28;4613;-62
2023/05/13 13:09:46;;;;;;;;;;;;;;;;;;5049362;28;4752;-62
2023/05/13 13:12:11;;;;;;;;;;;;;;;;;;5049233;28;5429;-61
2023/05/13 13:14:36;;;;;;;;;;;;;;;;;;5048426;28;5050;-62
2023/05/13 13:17:01;;;;;;;;;;;;;;;;;;5048363;28;1582;-62
2023/05/13 13:19:26;;;;;;;;;;;;;;;;;;5049469;28;4583;-62
2023/05/13 13:21:52;;;;;;;;;;;;;;;;;;5048472;28;4990;-62
2023/05/13 13:24:17;;;;;;;;;;;;;;;;;;5049429;28;4552;-62
2023/05/13 13:26:43;;;;;;;;;;;;;;;;;;5049860;28;4647;-62
2023/05/13 13:29:08;;;;;;;;;;;;;;;;;;5048069;28;5084;-61
2023/05/13 13:31:33;;;;;;;;;;;;;;;;;;5050263;28;1233;-62
2023/05/13 13:34:03;;;;;;;;;;;;;;;;;;5048997;28;4670;-62
2023/05/13 13:36:28;;;;;;;;;;;;;;;;;;5049195;28;4957;-61
2023/05/13 13:38:53;;;;;;;;;;;;;;;;;;5049531;28;4622;-61
2023/05/13 13:41:18;;;;;;;;;;;;;;;;;;5049321;28;4482;-62
2023/05/13 13:43:44;;;;;;;;;;;;;;;;;;5049611;28;1981;-62
2023/05/13 13:46:10;;;;;;;;;;;;;;;;;;5048030;28;4765;-61
2023/05/13 13:48:36;;;;;;;;;;;;;;;;;;5048569;28;5168;-62
2023/05/13 13:51:01;;;;;;;;;;;;;;;;;;5049002;28;4472;-62
2023/05/13 13:53:26;;;;;;;;;;;;;;;;;;5046967;28;4501;-62
2023/05/13 13:55:51;;;;;;;;;;;;;;;;;;5048721;28;2059;-61
2023/05/13 13:58:17;;;;;;;;;;;;;;;;;;5048753;28;4647;-60
2023/05/13 14:00:42;;;;;;;;;;;;;;;;;;5048416;28;4466;-62
2023/05/13 14:03:07;;;;;;;;;;;;;;;;;;5048112;28;4457;-63
2023/05/13 14:05:32;;;;;;;;;;;;;;;;;;5047458;28;5096;-62
2023/05/13 14:07:58;;;;;;;;;;;;;;;;;;5049422;28;1176;-62
2023/05/13 14:10:23;;;;;;;;;;;;;;;;;;5048435;28;5059;-63
2023/05/13 14:12:48;;;;;;;;;;;;;;;;;;5046738;28;4955;-63
2023/05/13 14:15:13;;;;;;;;;;;;;;;;;;5048196;28;4855;-63
2023/05/13 14:17:39;;;;;;;;;;;;;;;;;;5043529;28;4499;-62
2023/05/13 14:20:05;;;;;;;;;;;;;;;;;;5048370;28;4638;-60
2023/05/13 14:22:30;;;;;;;;;;;;;;;;;;5048522;28;1273;-63
2023/05/13 14:24:55;;;;;;;;;;;;;;;;;;5048364;28;4495;-63
2023/05/13 14:27:23;;;;;;;;;;;;;;;;;;5048031;28;4471;-62
2023/05/13 14:29:48;;;;;;;;;;;;;;;;;;5047766;28;4505;-62
2023/05/13 14:32:13;;;;;;;;;;;;;;;;;;5046221;28;4651;-62
2023/05/13 14:34:38;;;;;;;;;;;;;;;;;;5048001;28;1148;-62
2023/05/13 14:37:04;;;;;;;;;;;;;;;;;;5047892;28;4496;-62
2023/05/13 14:39:29;;;;;;;;;;;;;;;;;;5046278;28;4591;-62
2023/05/13 14:41:55;;;;;;;;;;;;;;;;;;5047605;28;4900;-62
2023/05/13 14:44:20;;;;;;;;;;;;;;;;;;5047371;28;4669;-61
2023/05/13 14:46:45;;;;;;;;;;;;;;;;;;5047177;28;1372;-61
2023/05/13 14:49:10;;;;;;;;;;;;;;;;;;5047875;28;5054;-61
2023/05/13 14:51:35;;;;;;;;;;;;;;;;;;5047386;28;4647;-62
2023/05/13 14:54:01;;;;;;;;;;;;;;;;;;5047452;28;4454;-62
2023/05/13 14:56:26;;;;;;;;;;;;;;;;;;5047133;28;4628;-62
2023/05/13 14:58:52;;;;;;;;;;;;;;;;;;5048251;28;1150;-62
2023/05/13 15:01:17;;;;;;;;;;;;;;;;;;5047539;28;4413;-62
2023/05/13 15:03:42;;;;;;;;;;;;;;;;;;5046957;28;4961;-61
2023/05/13 15:06:07;;;;;;;;;;;;;;;;;;5045945;28;4680;-62
2023/05/13 15:08:33;;;;;;;;;;;;;;;;;;5047597;28;4465;-62
2023/05/13 15:10:58;;;;;;;;;;;;;;;;;;5043405;28;4727;-62
2023/05/13 15:13:26;;;;;;;;;;;;;;;;;;5046451;28;5000;-62
2023/05/13 15:15:51;;;;;;;;;;;;;;;;;;5045616;28;5663;-62
2023/05/13 15:18:16;;;;;;;;;;;;;;;;;;5043915;28;4524;-62
2023/05/13 15:20:41;;;;;;;;;;;;;;;;;;5048121;28;4465;-62
2023/05/13 15:23:07;;;;;;;;;;;;;;;;;;5047254;28;4580;-62
2023/05/13 15:25:32;;;;;;;;;;;;;;;;;;5045367;28;1366;-62
2023/05/13 15:27:57;;;;;;;;;;;;;;;;;;5047161;28;4856;-62
2023/05/13 15:30:22;;;;;;;;;;;;;;;;;;5047582;28;5079;-62
2023/05/13 15:32:48;;;;;;;;;;;;;;;;;;5047042;28;4557;-62
2023/05/13 15:35:14;;;;;;;;;;;;;;;;;;5047428;28;4512;-62
2023/05/13 15:37:41;;;;;;;;;;;;;;;;;;5048229;28;1042;-62
2023/05/13 15:40:06;;;;;;;;;;;;;;;;;;5046762;28;4475;-62
2023/05/13 15:42:32;;;;;;;;;;;;;;;;;;5047367;28;4677;-62
2023/05/13 15:44:57;;;;;;;;;;;;;;;;;;5047493;28;5109;-62
2023/05/13 15:47:22;;;;;;;;;;;;;;;;;;5048202;28;5015;-62
2023/05/13 15:49:49;;;;;;;;;;;;;;;;;;5052031;28;1780;-62
2023/05/13 15:52:14;;;;;;;;;;;;;;;;;;5051827;28;4977;-62
2023/05/13 15:54:40;;;;;;;;;;;;;;;;;;5049627;28;5082;-62
2023/05/13 15:57:05;;;;;;;;;;;;;;;;;;5051109;28;4449;-62
2023/05/13 15:59:30;;;;;;;;;;;;;;;;;;5051443;28;4474;-62
2023/05/13 16:01:56;;;;;;;;;;;;;;;;;;5051918;28;1230;-62
2023/05/13 16:04:21;;;;;;;;;;;;;;;;;;5050942;28;4834;-60
2023/05/13 16:06:46;;;;;;;;;;;;;;;;;;5049944;28;4461;-62
2023/05/13 16:09:12;;;;;;;;;;;;;;;;;;5051046;28;4487;-62
2023/05/13 16:11:37;;;;;;;;;;;;;;;;;;5051308;28;4875;-62
2023/05/13 16:14:03;;;;;;;;;;;;;;;;;;5052062;28;1148;-62
2023/05/13 16:16:28;;;;;;;;;;;;;;;;;;5050764;28;4387;-62
2023/05/13 16:18:54;;;;;;;;;;;;;;;;;;5051379;28;4441;-62
2023/05/13 16:21:19;;;;;;;;;;;;;;;;;;5050907;28;4779;-62
2023/05/13 16:23:44;;;;;;;;;;;;;;;;;;5048497;28;5490;-62
2023/05/13 16:26:09;;;;;;;;;;;;;;;;;;5048621;28;4445;-62
2023/05/13 16:28:35;;;;;;;;;;;;;;;;;;5049468;28;1308;-62
2023/05/13 16:31:00;;;;;;;;;;;;;;;;;;5043033;28;4947;-62
2023/05/13 16:33:25;;;;;;;;;;;;;;;;;;5043963;28;4548;-60
2023/05/13 16:35:50;;;;;;;;;;;;;;;;;;5046519;28;4671;-60
2023/05/13 16:38:16;;;;;;;;;;;;;;;;;;5048603;28;4500;-60
2023/05/13 16:40:41;;;;;;;;;;;;;;;;;;5050738;28;3517;-59
2023/05/13 16:43:07;;;;;;;;;;;;;;;;;;5050150;28;4635;-59
2023/05/13 16:45:32;;;;;;;;;;;;;;;;;;5041515;28;4578;-60
2023/05/13 16:47:57;;;;;;;;;;;;;;;;;;5046454;28;5113;-60
2023/05/13 16:50:22;;;;;;;;;;;;;;;;;;5047450;28;4905;-60
2023/05/13 16:52:47;;;;;;;;;;;;;;;;;;5052676;28;3543;-60